sensor_id;sensor_type;location;lat;lon;timestamp;P1;durP1;ratioP1;P2;durP2;ratioP2
5414;SDS011;2730;51.512;7.504;2022-08-02T04:52:18;16.47;;;9.50;;
5414;SDS011;2730;51.512;7.504;2022-08-02T04:54:45;18.60;;;10.43;;
5414;SDS011;2730;51.512;7.504;2022-08-02T04:57:12;15.00;;;8.37;;
5414;SDS011;2730;51.512;7.504;2022-08-02T04:59:56;13.63;;;9.00;;
5414;SDS011;2730;51.512;7.504;2022-08-02T05:02:23;14.70;;;8.37;;
5414;SDS011;2730;51.512;7.504;2022-08-02T05:04:50;11.17;;;8.90;;
5414;SDS011;2730;51.512;7.504;2022-08-02T05:07:19;13.37;;;8.80;;
5414;SDS011;2730;51.512;7.504;2022-08-02T05:09:46;12.57;;;8.63;;
5414;SDS011;2730;51.512;7.504;2022-08-02T05:12:13;16.63;;;8.90;;
5414;SDS011;2730;51.512;7.504;2022-08-02T05:14:39;16.53;;;8.23;;
5414;SDS011;2730;51.512;7.504;2022-08-02T05:17:06;10.60;;;8.00;;
5414;SDS011;2730;51.512;7.504;2022-08-02T05:19:33;10.93;;;7.47;;
5414;SDS011;2730;51.512;7.504;2022-08-02T05:22:00;10.10;;;7.40;;
5414;SDS011;2730;51.512;7.504;2022-08-02T05:24:29;16.60;;;7.77;;
5414;SDS011;2730;51.512;7.504;2022-08-02T05:26:55;11.63;;;7.10;;
5414;SDS011;2730;51.512;7.504;2022-08-02T05:29:22;12.63;;;6.87;;
5414;SDS011;2730;51.512;7.504;2022-08-02T05:31:49;11.50;;;7.83;;
5414;SDS011;2730;51.512;7.504;2022-08-02T05:34:16;12.07;;;6.53;;
5414;SDS011;2730;51.512;7.504;2022-08-02T05:36:44;18.07;;;8.40;;
5414;SDS011;2730;51.512;7.504;2022-08-02T05:39:11;11.90;;;7.70;;
5414;SDS011;2730;51.512;7.504;2022-08-02T05:41:39;12.23;;;8.23;;
5414;SDS011;2730;51.512;7.504;2022-08-02T05:44:06;11.13;;;7.60;;
5414;SDS011;2730;51.512;7.504;2022-08-02T05:46:33;11.97;;;7.90;;
5414;SDS011;2730;51.512;7.504;2022-08-02T05:49:00;11.83;;;7.03;;
5414;SDS011;2730;51.512;7.504;2022-08-02T05:51:28;11.10;;;8.47;;
5414;SDS011;2730;51.512;7.504;2022-08-02T05:54:05;9.57;;;7.47;;
5414;SDS011;2730;51.512;7.504;2022-08-02T05:56:37;12.80;;;7.47;;
5414;SDS011;2730;51.512;7.504;2022-08-02T05:59:17;16.87;;;7.90;;
5414;SDS011;2730;51.512;7.504;2022-08-02T06:01:54;10.83;;;7.90;;
5414;SDS011;2730;51.512;7.504;2022-08-02T06:04:24;9.67;;;7.40;;
5414;SDS011;2730;51.512;7.504;2022-08-02T06:06:53;10.97;;;7.97;;
5414;SDS011;2730;51.512;7.504;2022-08-02T06:09:26;12.23;;;7.57;;
5414;SDS011;2730;51.512;7.504;2022-08-02T06:11:56;11.87;;;7.43;;
5414;SDS011;2730;51.512;7.504;2022-08-02T06:14:24;13.47;;;7.83;;
5414;SDS011;2730;51.512;7.504;2022-08-02T06:16:52;12.13;;;7.20;;
5414;SDS011;2730;51.512;7.504;2022-08-02T06:19:20;13.00;;;7.90;;
5414;SDS011;2730;51.512;7.504;2022-08-02T06:21:48;9.83;;;6.53;;
5414;SDS011;2730;51.512;7.504;2022-08-02T06:24:17;9.00;;;6.13;;
5414;SDS011;2730;51.512;7.504;2022-08-02T06:26:44;13.27;;;5.90;;
5414;SDS011;2730;51.512;7.504;2022-08-02T06:29:17;6.47;;;5.27;;
5414;SDS011;2730;51.512;7.504;2022-08-02T06:31:46;12.30;;;4.83;;
5414;SDS011;2730;51.512;7.504;2022-08-02T06:34:14;5.70;;;4.90;;
5414;SDS011;2730;51.512;7.504;2022-08-02T06:36:45;6.80;;;4.43;;
5414;SDS011;2730;51.512;7.504;2022-08-02T06:39:18;13.53;;;4.80;;
5414;SDS011;2730;51.512;7.504;2022-08-02T06:41:48;11.43;;;5.03;;
5414;SDS011;2730;51.512;7.504;2022-08-02T06:44:18;7.10;;;4.10;;
5414;SDS011;2730;51.512;7.504;2022-08-02T06:46:45;7.70;;;4.63;;
5414;SDS011;2730;51.512;7.504;2022-08-02T06:49:12;10.03;;;5.20;;
5414;SDS011;2730;51.512;7.504;2022-08-02T06:51:39;8.73;;;4.43;;
5414;SDS011;2730;51.512;7.504;2022-08-02T06:54:06;15.60;;;6.43;;
5414;SDS011;2730;51.512;7.504;2022-08-02T06:56:33;11.30;;;5.73;;
5414;SDS011;2730;51.512;7.504;2022-08-02T06:59:00;7.27;;;4.80;;
5414;SDS011;2730;51.512;7.504;2022-08-02T07:01:28;8.27;;;4.53;;
5414;SDS011;2730;51.512;7.504;2022-08-02T07:03:55;6.30;;;4.20;;
5414;SDS011;2730;51.512;7.504;2022-08-02T07:06:23;9.07;;;4.30;;
5414;SDS011;2730;51.512;7.504;2022-08-02T07:08:50;8.63;;;4.20;;
5414;SDS011;2730;51.512;7.504;2022-08-02T07:11:17;6.23;;;4.10;;
5414;SDS011;2730;51.512;7.504;2022-08-02T07:13:44;7.60;;;3.97;;
5414;SDS011;2730;51.512;7.504;2022-08-02T07:16:11;6.30;;;3.60;;
5414;SDS011;2730;51.512;7.504;2022-08-02T07:18:39;4.43;;;3.60;;
5414;SDS011;2730;51.512;7.504;2022-08-02T07:21:06;9.47;;;3.60;;
5414;SDS011;2730;51.512;7.504;2022-08-02T07:23:33;3.67;;;3.37;;
5414;SDS011;2730;51.512;7.504;2022-08-02T07:26:00;9.30;;;3.77;;
5414;SDS011;2730;51.512;7.504;2022-08-02T07:28:27;7.10;;;3.90;;
5414;SDS011;2730;51.512;7.504;2022-08-02T07:30:54;6.90;;;3.20;;
5414;SDS011;2730;51.512;7.504;2022-08-02T07:33:21;10.00;;;3.20;;
5414;SDS011;2730;51.512;7.504;2022-08-02T07:35:49;4.70;;;3.00;;
5414;SDS011;2730;51.512;7.504;2022-08-02T07:38:16;6.93;;;3.30;;
5414;SDS011;2730;51.512;7.504;2022-08-02T07:40:47;4.03;;;2.80;;
5414;SDS011;2730;51.512;7.504;2022-08-02T07:43:14;8.60;;;3.20;;
5414;SDS011;2730;51.512;7.504;2022-08-02T07:45:41;3.33;;;3.03;;
5414;SDS011;2730;51.512;7.504;2022-08-02T07:48:08;2.63;;;2.43;;
5414;SDS011;2730;51.512;7.504;2022-08-02T07:50:35;4.50;;;2.80;;
5414;SDS011;2730;51.512;7.504;2022-08-02T07:53:04;5.33;;;2.63;;
5414;SDS011;2730;51.512;7.504;2022-08-02T07:55:31;5.53;;;2.70;;
5414;SDS011;2730;51.512;7.504;2022-08-02T07:57:58;5.30;;;2.77;;
5414;SDS011;2730;51.512;7.504;2022-08-02T08:00:25;3.00;;;2.40;;
5414;SDS011;2730;51.512;7.504;2022-08-02T08:02:51;5.20;;;2.33;;
5414;SDS011;2730;51.512;7.504;2022-08-02T08:05:18;3.53;;;2.20;;
5414;SDS011;2730;51.512;7.504;2022-08-02T08:07:45;5.07;;;2.20;;
5414;SDS011;2730;51.512;7.504;2022-08-02T08:10:13;3.77;;;1.80;;
5414;SDS011;2730;51.512;7.504;2022-08-02T08:12:40;1.77;;;1.67;;
5414;SDS011;2730;51.512;7.504;2022-08-02T08:15:08;3.80;;;2.33;;
5414;SDS011;2730;51.512;7.504;2022-08-02T08:17:36;2.63;;;2.00;;
5414;SDS011;2730;51.512;7.504;2022-08-02T08:20:03;2.13;;;2.00;;
5414;SDS011;2730;51.512;7.504;2022-08-02T08:22:31;2.90;;;1.93;;
5414;SDS011;2730;51.512;7.504;2022-08-02T08:24:58;4.17;;;2.27;;
5414;SDS011;2730;51.512;7.504;2022-08-02T08:27:26;1.47;;;1.37;;
5414;SDS011;2730;51.512;7.504;2022-08-02T08:29:53;2.00;;;1.90;;
5414;SDS011;2730;51.512;7.504;2022-08-02T08:32:20;2.90;;;1.73;;
5414;SDS011;2730;51.512;7.504;2022-08-02T08:34:47;2.53;;;1.60;;
5414;SDS011;2730;51.512;7.504;2022-08-02T08:37:15;2.97;;;1.97;;
5414;SDS011;2730;51.512;7.504;2022-08-02T08:39:42;1.57;;;1.47;;
5414;SDS011;2730;51.512;7.504;2022-08-02T08:42:10;4.20;;;1.67;;
5414;SDS011;2730;51.512;7.504;2022-08-02T08:44:38;1.97;;;1.50;;
5414;SDS011;2730;51.512;7.504;2022-08-02T08:47:05;2.00;;;1.90;;
5414;SDS011;2730;51.512;7.504;2022-08-02T08:49:34;1.40;;;1.30;;
5414;SDS011;2730;51.512;7.504;2022-08-02T08:52:06;4.30;;;1.70;;
5414;SDS011;2730;51.512;7.504;2022-08-02T08:54:35;4.50;;;1.80;;
5414;SDS011;2730;51.512;7.504;2022-08-02T08:57:03;1.60;;;1.50;;
5414;SDS011;2730;51.512;7.504;2022-08-02T08:59:31;4.20;;;1.50;;
5414;SDS011;2730;51.512;7.504;2022-08-02T09:02:00;3.17;;;1.90;;
5414;SDS011;2730;51.512;7.504;2022-08-02T09:04:27;2.90;;;2.00;;
5414;SDS011;2730;51.512;7.504;2022-08-02T09:06:55;2.80;;;1.60;;
5414;SDS011;2730;51.512;7.504;2022-08-02T09:09:22;2.70;;;1.50;;
5414;SDS011;2730;51.512;7.504;2022-08-02T09:11:49;2.57;;;1.60;;
5414;SDS011;2730;51.512;7.504;2022-08-02T09:14:24;1.97;;;1.60;;
5414;SDS011;2730;51.512;7.504;2022-08-02T09:16:53;2.17;;;1.70;;
5414;SDS011;2730;51.512;7.504;2022-08-02T09:19:34;4.40;;;1.80;;
5414;SDS011;2730;51.512;7.504;2022-08-02T09:22:02;1.90;;;1.80;;
5414;SDS011;2730;51.512;7.504;2022-08-02T09:24:39;2.03;;;1.83;;
5414;SDS011;2730;51.512;7.504;2022-08-02T09:27:11;2.13;;;1.80;;
5414;SDS011;2730;51.512;7.504;2022-08-02T09:29:39;1.80;;;1.63;;
5414;SDS011;2730;51.512;7.504;2022-08-02T09:32:07;2.27;;;1.73;;
5414;SDS011;2730;51.512;7.504;2022-08-02T09:34:46;1.90;;;1.70;;
5414;SDS011;2730;51.512;7.504;2022-08-02T09:37:21;2.80;;;1.80;;
5414;SDS011;2730;51.512;7.504;2022-08-02T09:39:50;2.53;;;2.33;;
5414;SDS011;2730;51.512;7.504;2022-08-02T09:42:17;3.27;;;1.90;;
5414;SDS011;2730;51.512;7.504;2022-08-02T09:44:53;1.77;;;1.60;;
5414;SDS011;2730;51.512;7.504;2022-08-02T09:47:22;2.30;;;2.20;;
5414;SDS011;2730;51.512;7.504;2022-08-02T09:49:49;2.30;;;1.70;;
5414;SDS011;2730;51.512;7.504;2022-08-02T09:52:21;2.40;;;1.90;;
5414;SDS011;2730;51.512;7.504;2022-08-02T09:54:48;2.17;;;2.07;;
5414;SDS011;2730;51.512;7.504;2022-08-02T09:57:24;4.63;;;1.90;;
5414;SDS011;2730;51.512;7.504;2022-08-02T09:59:53;3.10;;;2.13;;
5414;SDS011;2730;51.512;7.504;2022-08-02T10:02:22;2.10;;;1.90;;
5414;SDS011;2730;51.512;7.504;2022-08-02T10:04:50;1.77;;;1.67;;
5414;SDS011;2730;51.512;7.504;2022-08-02T10:07:18;1.87;;;1.70;;
5414;SDS011;2730;51.512;7.504;2022-08-02T10:09:45;2.60;;;1.80;;
5414;SDS011;2730;51.512;7.504;2022-08-02T10:12:13;2.63;;;2.20;;
5414;SDS011;2730;51.512;7.504;2022-08-02T10:14:41;2.20;;;2.00;;
5414;SDS011;2730;51.512;7.504;2022-08-02T10:17:09;2.77;;;1.90;;
5414;SDS011;2730;51.512;7.504;2022-08-02T10:19:37;2.03;;;1.93;;
5414;SDS011;2730;51.512;7.504;2022-08-02T10:22:05;4.17;;;2.13;;
5414;SDS011;2730;51.512;7.504;2022-08-02T10:24:37;3.93;;;2.07;;
5414;SDS011;2730;51.512;7.504;2022-08-02T10:27:05;3.90;;;2.53;;
5414;SDS011;2730;51.512;7.504;2022-08-02T10:29:37;2.37;;;2.27;;
5414;SDS011;2730;51.512;7.504;2022-08-02T10:32:06;3.77;;;2.30;;
5414;SDS011;2730;51.512;7.504;2022-08-02T10:34:40;2.37;;;2.20;;
5414;SDS011;2730;51.512;7.504;2022-08-02T10:37:12;4.80;;;1.77;;
5414;SDS011;2730;51.512;7.504;2022-08-02T10:39:40;4.00;;;2.10;;
5414;SDS011;2730;51.512;7.504;2022-08-02T10:42:08;2.37;;;1.97;;
5414;SDS011;2730;51.512;7.504;2022-08-02T10:44:35;2.83;;;2.30;;
5414;SDS011;2730;51.512;7.504;2022-08-02T10:47:22;2.40;;;2.30;;
5414;SDS011;2730;51.512;7.504;2022-08-02T10:49:52;4.33;;;2.53;;
5414;SDS011;2730;51.512;7.504;2022-08-02T10:52:20;2.80;;;2.60;;
5414;SDS011;2730;51.512;7.504;2022-08-02T10:54:49;10.10;;;2.73;;
5414;SDS011;2730;51.512;7.504;2022-08-02T10:57:22;2.70;;;2.50;;
5414;SDS011;2730;51.512;7.504;2022-08-02T10:59:51;2.23;;;2.13;;
5414;SDS011;2730;51.512;7.504;2022-08-02T11:02:34;2.43;;;2.33;;
5414;SDS011;2730;51.512;7.504;2022-08-02T11:05:16;3.83;;;2.43;;
5414;SDS011;2730;51.512;7.504;2022-08-02T11:07:45;2.17;;;1.97;;
5414;SDS011;2730;51.512;7.504;2022-08-02T11:10:30;2.53;;;2.33;;
5414;SDS011;2730;51.512;7.504;2022-08-02T11:13:06;2.47;;;2.37;;
5414;SDS011;2730;51.512;7.504;2022-08-02T11:15:48;2.83;;;2.53;;
5414;SDS011;2730;51.512;7.504;2022-08-02T11:18:17;3.63;;;2.30;;
5414;SDS011;2730;51.512;7.504;2022-08-02T11:20:46;2.63;;;2.43;;
5414;SDS011;2730;51.512;7.504;2022-08-02T11:23:34;2.97;;;2.77;;
5414;SDS011;2730;51.512;7.504;2022-08-02T11:26:02;3.10;;;2.33;;
5414;SDS011;2730;51.512;7.504;2022-08-02T11:29:09;4.00;;;3.03;;
5414;SDS011;2730;51.512;7.504;2022-08-02T11:31:37;3.70;;;2.53;;
5414;SDS011;2730;51.512;7.504;2022-08-02T11:34:05;4.07;;;2.60;;
5414;SDS011;2730;51.512;7.504;2022-08-02T11:36:41;3.00;;;2.80;;
5414;SDS011;2730;51.512;7.504;2022-08-02T11:39:09;2.60;;;2.40;;
5414;SDS011;2730;51.512;7.504;2022-08-02T11:41:36;2.80;;;2.60;;
5414;SDS011;2730;51.512;7.504;2022-08-02T11:44:04;2.87;;;2.50;;
5414;SDS011;2730;51.512;7.504;2022-08-02T11:46:31;3.63;;;3.37;;
5414;SDS011;2730;51.512;7.504;2022-08-02T11:49:09;3.23;;;3.03;;
5414;SDS011;2730;51.512;7.504;2022-08-02T11:51:38;4.87;;;3.20;;
5414;SDS011;2730;51.512;7.504;2022-08-02T11:54:26;7.10;;;3.53;;
5414;SDS011;2730;51.512;7.504;2022-08-02T11:57:07;3.77;;;3.30;;
5414;SDS011;2730;51.512;7.504;2022-08-02T11:59:38;3.87;;;3.13;;
5414;SDS011;2730;51.512;7.504;2022-08-02T12:02:06;6.60;;;3.20;;
5414;SDS011;2730;51.512;7.504;2022-08-02T12:04:33;5.63;;;3.33;;
5414;SDS011;2730;51.512;7.504;2022-08-02T12:07:03;4.97;;;3.30;;
5414;SDS011;2730;51.512;7.504;2022-08-02T12:09:31;3.87;;;3.30;;
5414;SDS011;2730;51.512;7.504;2022-08-02T12:12:00;4.23;;;3.63;;
5414;SDS011;2730;51.512;7.504;2022-08-02T12:14:28;5.37;;;3.53;;
5414;SDS011;2730;51.512;7.504;2022-08-02T12:16:57;5.60;;;2.90;;
5414;SDS011;2730;51.512;7.504;2022-08-02T12:19:42;12.50;;;3.60;;
5414;SDS011;2730;51.512;7.504;2022-08-02T12:22:11;3.93;;;3.60;;
5414;SDS011;2730;51.512;7.504;2022-08-02T12:24:44;3.83;;;3.30;;
5414;SDS011;2730;51.512;7.504;2022-08-02T12:27:29;4.90;;;3.77;;
5414;SDS011;2730;51.512;7.504;2022-08-02T12:29:59;4.03;;;3.67;;
5414;SDS011;2730;51.512;7.504;2022-08-02T12:32:29;5.40;;;3.33;;
5414;SDS011;2730;51.512;7.504;2022-08-02T12:35:00;7.57;;;3.27;;
5414;SDS011;2730;51.512;7.504;2022-08-02T12:37:34;4.00;;;3.70;;
5414;SDS011;2730;51.512;7.504;2022-08-02T12:40:17;3.77;;;3.50;;
5414;SDS011;2730;51.512;7.504;2022-08-02T12:42:46;4.10;;;3.77;;
5414;SDS011;2730;51.512;7.504;2022-08-02T12:45:14;4.27;;;3.53;;
5414;SDS011;2730;51.512;7.504;2022-08-02T12:47:45;5.30;;;3.70;;
5414;SDS011;2730;51.512;7.504;2022-08-02T12:50:16;4.43;;;3.60;;
5414;SDS011;2730;51.512;7.504;2022-08-02T12:52:46;3.63;;;3.40;;
5414;SDS011;2730;51.512;7.504;2022-08-02T12:55:14;7.53;;;3.70;;
5414;SDS011;2730;51.512;7.504;2022-08-02T12:57:56;7.13;;;2.93;;
5414;SDS011;2730;51.512;7.504;2022-08-02T13:00:25;3.67;;;3.37;;
5414;SDS011;2730;51.512;7.504;2022-08-02T13:02:57;3.40;;;3.10;;
5414;SDS011;2730;51.512;7.504;2022-08-02T13:05:25;4.70;;;3.20;;
5414;SDS011;2730;51.512;7.504;2022-08-02T13:07:55;3.10;;;2.80;;
5414;SDS011;2730;51.512;7.504;2022-08-02T13:10:23;3.10;;;2.90;;
5414;SDS011;2730;51.512;7.504;2022-08-02T13:12:51;5.63;;;3.07;;
5414;SDS011;2730;51.512;7.504;2022-08-02T13:15:19;2.77;;;2.57;;
5414;SDS011;2730;51.512;7.504;2022-08-02T13:17:46;3.10;;;2.50;;
5414;SDS011;2730;51.512;7.504;2022-08-02T13:20:13;3.70;;;2.70;;
5414;SDS011;2730;51.512;7.504;2022-08-02T13:22:40;3.83;;;2.67;;
5414;SDS011;2730;51.512;7.504;2022-08-02T13:25:09;2.73;;;2.53;;
5414;SDS011;2730;51.512;7.504;2022-08-02T13:27:36;2.83;;;2.47;;
5414;SDS011;2730;51.512;7.504;2022-08-02T13:30:04;6.37;;;2.53;;
5414;SDS011;2730;51.512;7.504;2022-08-02T13:32:32;2.70;;;2.50;;
5414;SDS011;2730;51.512;7.504;2022-08-02T13:34:59;4.77;;;2.43;;
5414;SDS011;2730;51.512;7.504;2022-08-02T13:37:26;7.83;;;2.20;;
5414;SDS011;2730;51.512;7.504;2022-08-02T13:39:53;4.33;;;2.60;;
5414;SDS011;2730;51.512;7.504;2022-08-02T13:42:22;2.07;;;1.97;;
5414;SDS011;2730;51.512;7.504;2022-08-02T13:44:49;2.30;;;2.20;;
5414;SDS011;2730;51.512;7.504;2022-08-02T13:47:16;2.30;;;2.13;;
5414;SDS011;2730;51.512;7.504;2022-08-02T13:49:43;2.40;;;2.00;;
5414;SDS011;2730;51.512;7.504;2022-08-02T13:52:11;2.40;;;2.20;;
5414;SDS011;2730;51.512;7.504;2022-08-02T13:54:38;6.17;;;2.87;;
5414;SDS011;2730;51.512;7.504;2022-08-02T13:57:05;9.53;;;2.20;;
5414;SDS011;2730;51.512;7.504;2022-08-02T13:59:34;3.13;;;2.07;;
5414;SDS011;2730;51.512;7.504;2022-08-02T14:02:01;3.10;;;2.07;;
5414;SDS011;2730;51.512;7.504;2022-08-02T14:04:28;5.33;;;2.10;;
5414;SDS011;2730;51.512;7.504;2022-08-02T14:06:56;3.77;;;2.57;;
5414;SDS011;2730;51.512;7.504;2022-08-02T14:09:23;3.87;;;2.10;;
5414;SDS011;2730;51.512;7.504;2022-08-02T14:11:50;3.50;;;2.43;;
5414;SDS011;2730;51.512;7.504;2022-08-02T14:14:18;6.00;;;2.47;;
5414;SDS011;2730;51.512;7.504;2022-08-02T14:16:46;4.17;;;2.70;;
5414;SDS011;2730;51.512;7.504;2022-08-02T14:19:13;3.53;;;2.00;;
5414;SDS011;2730;51.512;7.504;2022-08-02T14:21:40;5.13;;;2.40;;
5414;SDS011;2730;51.512;7.504;2022-08-02T14:24:07;9.00;;;2.33;;
5414;SDS011;2730;51.512;7.504;2022-08-02T14:26:34;2.90;;;2.60;;
5414;SDS011;2730;51.512;7.504;2022-08-02T14:29:02;2.90;;;1.93;;
5414;SDS011;2730;51.512;7.504;2022-08-02T14:31:29;4.90;;;2.90;;
5414;SDS011;2730;51.512;7.504;2022-08-02T14:33:57;5.03;;;2.03;;
5414;SDS011;2730;51.512;7.504;2022-08-02T14:36:25;3.17;;;2.23;;
5414;SDS011;2730;51.512;7.504;2022-08-02T14:38:52;2.93;;;2.00;;
5414;SDS011;2730;51.512;7.504;2022-08-02T14:41:19;2.87;;;2.03;;
5414;SDS011;2730;51.512;7.504;2022-08-02T14:43:46;2.23;;;1.70;;
5414;SDS011;2730;51.512;7.504;2022-08-02T14:46:33;8.60;;;2.23;;
5414;SDS011;2730;51.512;7.504;2022-08-02T14:49:02;1.87;;;1.77;;
5414;SDS011;2730;51.512;7.504;2022-08-02T14:51:31;5.30;;;2.73;;
5414;SDS011;2730;51.512;7.504;2022-08-02T14:53:59;2.60;;;2.40;;
5414;SDS011;2730;51.512;7.504;2022-08-02T14:56:27;3.40;;;2.10;;
5414;SDS011;2730;51.512;7.504;2022-08-02T14:58:54;5.07;;;2.43;;
5414;SDS011;2730;51.512;7.504;2022-08-02T15:01:21;2.20;;;2.10;;
5414;SDS011;2730;51.512;7.504;2022-08-02T15:03:49;2.83;;;2.63;;
5414;SDS011;2730;51.512;7.504;2022-08-02T15:06:17;5.53;;;2.53;;
5414;SDS011;2730;51.512;7.504;2022-08-02T15:08:44;1.97;;;1.87;;
5414;SDS011;2730;51.512;7.504;2022-08-02T15:11:11;2.73;;;2.23;;
5414;SDS011;2730;51.512;7.504;2022-08-02T15:13:38;3.17;;;2.17;;
5414;SDS011;2730;51.512;7.504;2022-08-02T15:16:05;2.10;;;2.00;;
5414;SDS011;2730;51.512;7.504;2022-08-02T15:18:32;3.10;;;2.80;;
5414;SDS011;2730;51.512;7.504;2022-08-02T15:20:59;2.17;;;2.00;;
5414;SDS011;2730;51.512;7.504;2022-08-02T15:23:27;3.87;;;1.97;;
5414;SDS011;2730;51.512;7.504;2022-08-02T15:25:55;2.17;;;2.07;;
5414;SDS011;2730;51.512;7.504;2022-08-02T15:28:22;3.17;;;2.50;;
5414;SDS011;2730;51.512;7.504;2022-08-02T15:30:50;2.30;;;2.20;;
5414;SDS011;2730;51.512;7.504;2022-08-02T15:33:17;3.67;;;2.33;;
5414;SDS011;2730;51.512;7.504;2022-08-02T15:35:43;2.70;;;2.00;;
5414;SDS011;2730;51.512;7.504;2022-08-02T15:38:10;3.27;;;2.20;;
5414;SDS011;2730;51.512;7.504;2022-08-02T15:40:39;3.30;;;2.10;;
5414;SDS011;2730;51.512;7.504;2022-08-02T15:43:06;2.63;;;2.30;;
5414;SDS011;2730;51.512;7.504;2022-08-02T15:45:33;10.13;;;2.40;;
5414;SDS011;2730;51.512;7.504;2022-08-02T15:48:01;4.10;;;2.20;;
5414;SDS011;2730;51.512;7.504;2022-08-02T15:50:28;7.30;;;2.07;;
5414;SDS011;2730;51.512;7.504;2022-08-02T15:52:55;3.97;;;2.40;;
5414;SDS011;2730;51.512;7.504;2022-08-02T15:55:22;1.90;;;1.80;;
5414;SDS011;2730;51.512;7.504;2022-08-02T15:57:50;2.30;;;2.10;;
5414;SDS011;2730;51.512;7.504;2022-08-02T16:00:17;2.40;;;2.20;;
5414;SDS011;2730;51.512;7.504;2022-08-02T16:02:46;2.40;;;2.17;;
5414;SDS011;2730;51.512;7.504;2022-08-02T16:05:13;2.50;;;2.30;;
5414;SDS011;2730;51.512;7.504;2022-08-02T16:07:41;5.63;;;2.60;;
5414;SDS011;2730;51.512;7.504;2022-08-02T16:10:09;2.47;;;2.27;;
5414;SDS011;2730;51.512;7.504;2022-08-02T16:12:36;2.73;;;2.13;;
5414;SDS011;2730;51.512;7.504;2022-08-02T16:15:06;4.50;;;2.40;;
5414;SDS011;2730;51.512;7.504;2022-08-02T16:17:33;2.83;;;2.63;;
5414;SDS011;2730;51.512;7.504;2022-08-02T16:20:01;2.60;;;2.40;;
5414;SDS011;2730;51.512;7.504;2022-08-02T16:22:28;2.77;;;2.50;;
5414;SDS011;2730;51.512;7.504;2022-08-02T16:24:54;2.50;;;2.30;;
5414;SDS011;2730;51.512;7.504;2022-08-02T16:27:21;4.20;;;2.40;;
5414;SDS011;2730;51.512;7.504;2022-08-02T16:29:49;8.50;;;2.60;;
5414;SDS011;2730;51.512;7.504;2022-08-02T16:32:17;3.60;;;2.70;;
5414;SDS011;2730;51.512;7.504;2022-08-02T16:34:44;3.13;;;2.10;;
5414;SDS011;2730;51.512;7.504;2022-08-02T16:37:11;2.53;;;2.30;;
5414;SDS011;2730;51.512;7.504;2022-08-02T16:39:38;4.93;;;2.80;;
5414;SDS011;2730;51.512;7.504;2022-08-02T16:42:05;2.47;;;2.27;;
5414;SDS011;2730;51.512;7.504;2022-08-02T16:44:32;2.57;;;2.37;;
5414;SDS011;2730;51.512;7.504;2022-08-02T16:46:59;3.63;;;2.60;;
5414;SDS011;2730;51.512;7.504;2022-08-02T16:49:27;3.27;;;2.60;;
5414;SDS011;2730;51.512;7.504;2022-08-02T16:51:54;2.57;;;2.37;;
5414;SDS011;2730;51.512;7.504;2022-08-02T16:54:21;2.50;;;2.30;;
5414;SDS011;2730;51.512;7.504;2022-08-02T16:56:49;5.13;;;2.57;;
5414;SDS011;2730;51.512;7.504;2022-08-02T16:59:16;5.70;;;2.83;;
5414;SDS011;2730;51.512;7.504;2022-08-02T17:01:43;3.63;;;2.53;;
5414;SDS011;2730;51.512;7.504;2022-08-02T17:04:10;2.40;;;2.30;;
5414;SDS011;2730;51.512;7.504;2022-08-02T17:06:38;2.30;;;2.10;;
5414;SDS011;2730;51.512;7.504;2022-08-02T17:09:05;7.53;;;2.47;;
5414;SDS011;2730;51.512;7.504;2022-08-02T17:11:32;3.63;;;2.73;;
5414;SDS011;2730;51.512;7.504;2022-08-02T17:13:59;2.83;;;2.30;;
5414;SDS011;2730;51.512;7.504;2022-08-02T17:16:26;2.50;;;2.30;;
5414;SDS011;2730;51.512;7.504;2022-08-02T17:18:53;2.13;;;2.03;;
5414;SDS011;2730;51.512;7.504;2022-08-02T17:21:21;2.53;;;2.33;;
5414;SDS011;2730;51.512;7.504;2022-08-02T17:23:49;2.60;;;2.10;;
5414;SDS011;2730;51.512;7.504;2022-08-02T17:26:16;2.33;;;2.13;;
5414;SDS011;2730;51.512;7.504;2022-08-02T17:28:43;2.93;;;2.07;;
5414;SDS011;2730;51.512;7.504;2022-08-02T17:31:10;3.50;;;2.23;;
5414;SDS011;2730;51.512;7.504;2022-08-02T17:33:37;4.87;;;3.43;;
5414;SDS011;2730;51.512;7.504;2022-08-02T17:36:04;4.20;;;2.40;;
5414;SDS011;2730;51.512;7.504;2022-08-02T17:38:31;3.77;;;2.03;;
5414;SDS011;2730;51.512;7.504;2022-08-02T17:41:00;3.97;;;2.03;;
5414;SDS011;2730;51.512;7.504;2022-08-02T17:43:27;2.40;;;2.30;;
5414;SDS011;2730;51.512;7.504;2022-08-02T17:45:55;2.23;;;2.13;;
5414;SDS011;2730;51.512;7.504;2022-08-02T17:48:22;3.23;;;2.23;;
5414;SDS011;2730;51.512;7.504;2022-08-02T17:50:49;2.80;;;1.90;;
5414;SDS011;2730;51.512;7.504;2022-08-02T17:53:16;3.20;;;2.23;;
5414;SDS011;2730;51.512;7.504;2022-08-02T17:55:44;3.07;;;2.80;;
5414;SDS011;2730;51.512;7.504;2022-08-02T17:58:12;2.83;;;2.00;;
5414;SDS011;2730;51.512;7.504;2022-08-02T18:00:39;4.20;;;2.60;;
5414;SDS011;2730;51.512;7.504;2022-08-02T18:03:06;7.07;;;1.63;;
5414;SDS011;2730;51.512;7.504;2022-08-02T18:05:33;5.43;;;2.20;;
5414;SDS011;2730;51.512;7.504;2022-08-02T18:08:01;1.83;;;1.73;;
5414;SDS011;2730;51.512;7.504;2022-08-02T18:10:28;5.03;;;2.03;;
5414;SDS011;2730;51.512;7.504;2022-08-02T18:12:55;2.47;;;2.30;;
5414;SDS011;2730;51.512;7.504;2022-08-02T18:15:23;3.30;;;1.77;;
5414;SDS011;2730;51.512;7.504;2022-08-02T18:17:51;2.27;;;1.97;;
5414;SDS011;2730;51.512;7.504;2022-08-02T18:20:18;5.20;;;2.03;;
5414;SDS011;2730;51.512;7.504;2022-08-02T18:22:45;1.70;;;1.60;;
5414;SDS011;2730;51.512;7.504;2022-08-02T18:25:12;2.93;;;1.90;;
5414;SDS011;2730;51.512;7.504;2022-08-02T18:27:42;4.10;;;1.97;;
5414;SDS011;2730;51.512;7.504;2022-08-02T18:30:09;1.97;;;1.87;;
5414;SDS011;2730;51.512;7.504;2022-08-02T18:32:39;2.53;;;2.33;;
5414;SDS011;2730;51.512;7.504;2022-08-02T18:35:06;1.90;;;1.80;;
5414;SDS011;2730;51.512;7.504;2022-08-02T18:37:33;2.33;;;2.13;;
5414;SDS011;2730;51.512;7.504;2022-08-02T18:39:59;2.70;;;2.37;;
5414;SDS011;2730;51.512;7.504;2022-08-02T18:42:27;2.13;;;2.03;;
5414;SDS011;2730;51.512;7.504;2022-08-02T18:44:54;3.07;;;2.07;;
5414;SDS011;2730;51.512;7.504;2022-08-02T18:47:20;2.33;;;2.00;;
5414;SDS011;2730;51.512;7.504;2022-08-02T18:49:49;3.20;;;2.93;;
5414;SDS011;2730;51.512;7.504;2022-08-02T18:52:16;2.87;;;2.67;;
5414;SDS011;2730;51.512;7.504;2022-08-02T18:54:44;3.93;;;3.40;;
5414;SDS011;2730;51.512;7.504;2022-08-02T18:57:11;3.93;;;2.87;;
5414;SDS011;2730;51.512;7.504;2022-08-02T18:59:38;13.97;;;3.27;;
5414;SDS011;2730;51.512;7.504;2022-08-02T19:02:05;4.07;;;1.93;;
5414;SDS011;2730;51.512;7.504;2022-08-02T19:04:32;5.10;;;2.73;;
5414;SDS011;2730;51.512;7.504;2022-08-02T19:07:01;3.27;;;2.47;;
5414;SDS011;2730;51.512;7.504;2022-08-02T19:09:28;2.63;;;2.27;;
5414;SDS011;2730;51.512;7.504;2022-08-02T19:11:55;3.10;;;2.43;;
5414;SDS011;2730;51.512;7.504;2022-08-02T19:14:21;4.10;;;2.17;;
5414;SDS011;2730;51.512;7.504;2022-08-02T19:16:49;2.23;;;2.00;;
5414;SDS011;2730;51.512;7.504;2022-08-02T19:19:16;5.67;;;2.50;;
5414;SDS011;2730;51.512;7.504;2022-08-02T19:21:44;3.83;;;2.43;;
5414;SDS011;2730;51.512;7.504;2022-08-02T19:24:12;2.60;;;2.40;;
5414;SDS011;2730;51.512;7.504;2022-08-02T19:26:40;4.50;;;3.50;;
5414;SDS011;2730;51.512;7.504;2022-08-02T19:29:07;3.10;;;2.70;;
5414;SDS011;2730;51.512;7.504;2022-08-02T19:31:34;2.50;;;2.30;;
5414;SDS011;2730;51.512;7.504;2022-08-02T19:34:01;2.37;;;2.17;;
5414;SDS011;2730;51.512;7.504;2022-08-02T19:36:28;3.60;;;2.80;;
5414;SDS011;2730;51.512;7.504;2022-08-02T19:38:55;2.80;;;2.60;;
5414;SDS011;2730;51.512;7.504;2022-08-02T19:41:23;3.90;;;3.00;;
5414;SDS011;2730;51.512;7.504;2022-08-02T19:43:50;4.75;;;3.83;;
5414;SDS011;2730;51.512;7.504;2022-08-02T19:46:17;5.87;;;2.83;;
5414;SDS011;2730;51.512;7.504;2022-08-02T19:48:44;4.80;;;3.00;;
5414;SDS011;2730;51.512;7.504;2022-08-02T19:51:11;2.40;;;2.13;;
5414;SDS011;2730;51.512;7.504;2022-08-02T19:53:38;6.10;;;2.53;;
5414;SDS011;2730;51.512;7.504;2022-08-02T19:56:05;4.30;;;2.70;;
5414;SDS011;2730;51.512;7.504;2022-08-02T19:58:34;3.33;;;2.50;;
5414;SDS011;2730;51.512;7.504;2022-08-02T20:01:01;5.43;;;2.43;;
5414;SDS011;2730;51.512;7.504;2022-08-02T20:03:28;5.97;;;2.40;;
5414;SDS011;2730;51.512;7.504;2022-08-02T20:05:55;7.43;;;6.10;;
5414;SDS011;2730;51.512;7.504;2022-08-02T20:08:22;4.33;;;3.30;;
5414;SDS011;2730;51.512;7.504;2022-08-02T20:10:49;2.93;;;2.60;;
5414;SDS011;2730;51.512;7.504;2022-08-02T20:13:16;8.70;;;2.80;;